sensor_id;sensor_type;location;lat;lon;timestamp;temperature;humidity
21090;DHT22;10703;51.020;6.128;2023-05-10T00:01:08;12.80;99.90
21090;DHT22;10703;51.020;6.128;2023-05-10T00:03:34;12.80;99.90
21090;DHT22;10703;51.020;6.128;2023-05-10T00:06:01;12.80;99.90
21090;DHT22;10703;51.020;6.128;2023-05-10T00:08:28;12.80;99.90
21090;DHT22;10703;51.020;6.128;2023-05-10T00:10:55;12.80;99.90
21090;DHT22;10703;51.020;6.128;2023-05-10T00:13:21;12.80;99.90
21090;DHT22;10703;51.020;6.128;2023-05-10T00:15:48;12.80;99.90
21090;DHT22;10703;51.020;6.128;2023-05-10T00:18:15;12.80;99.90
21090;DHT22;10703;51.020;6.128;2023-05-10T00:20:41;12.90;99.90
21090;DHT22;10703;51.020;6.128;2023-05-10T00:23:08;12.90;99.90
21090;DHT22;10703;51.020;6.128;2023-05-10T00:25:34;12.90;99.90
21090;DHT22;10703;51.020;6.128;2023-05-10T00:28:01;12.90;99.90
21090;DHT22;10703;51.020;6.128;2023-05-10T00:30:28;12.90;99.90
21090;DHT22;10703;51.020;6.128;2023-05-10T00:32:54;13.00;99.90
21090;DHT22;10703;51.020;6.128;2023-05-10T00:35:21;13.00;99.90
21090;DHT22;10703;51.020;6.128;2023-05-10T00:37:48;13.00;99.90
21090;DHT22;10703;51.020;6.128;2023-05-10T00:40:14;12.90;99.90
21090;DHT22;10703;51.020;6.128;2023-05-10T00:42:42;13.00;99.90
21090;DHT22;10703;51.020;6.128;2023-05-10T00:45:08;13.00;99.90
21090;DHT22;10703;51.020;6.128;2023-05-10T00:47:35;13.00;99.90
21090;DHT22;10703;51.020;6.128;2023-05-10T00:50:02;13.00;99.90
21090;DHT22;10703;51.020;6.128;2023-05-10T00:52:30;13.00;99.90
21090;DHT22;10703;51.020;6.128;2023-05-10T00:54:56;13.00;99.90
21090;DHT22;10703;51.020;6.128;2023-05-10T00:57:24;13.00;99.90
21090;DHT22;10703;51.020;6.128;2023-05-10T00:59:51;13.00;99.90
21090;DHT22;10703;51.020;6.128;2023-05-10T01:02:17;13.00;99.90
21090;DHT22;10703;51.020;6.128;2023-05-10T01:04:44;12.90;99.90
21090;DHT22;10703;51.020;6.128;2023-05-10T01:07:10;12.90;99.90
21090;DHT22;10703;51.020;6.128;2023-05-10T01:09:37;12.90;99.90
21090;DHT22;10703;51.020;6.128;2023-05-10T01:12:05;12.90;99.90
21090;DHT22;10703;51.020;6.128;2023-05-10T01:14:33;12.90;99.90
21090;DHT22;10703;51.020;6.128;2023-05-10T01:17:00;12.90;99.90
21090;DHT22;10703;51.020;6.128;2023-05-10T01:19:29;12.80;99.90
21090;DHT22;10703;51.020;6.128;2023-05-10T01:27:34;12.80;99.90
21090;DHT22;10703;51.020;6.128;2023-05-10T01:35:50;12.80;99.90
21090;DHT22;10703;51.020;6.128;2023-05-10T01:38:50;12.80;99.90
21090;DHT22;10703;51.020;6.128;2023-05-10T01:41:51;12.80;99.90
21090;DHT22;10703;51.020;6.128;2023-05-10T01:44:39;12.80;99.90
21090;DHT22;10703;51.020;6.128;2023-05-10T01:47:20;12.80;99.90
21090;DHT22;10703;51.020;6.128;2023-05-10T01:49:52;12.80;99.90
21090;DHT22;10703;51.020;6.128;2023-05-10T01:52:25;12.80;99.90
21090;DHT22;10703;51.020;6.128;2023-05-10T01:54:55;12.80;99.90
21090;DHT22;10703;51.020;6.128;2023-05-10T01:57:26;12.80;99.90
21090;DHT22;10703;51.020;6.128;2023-05-10T01:59:55;12.80;99.90
21090;DHT22;10703;51.020;6.128;2023-05-10T02:02:23;12.80;99.90
21090;DHT22;10703;51.020;6.128;2023-05-10T02:04:51;12.80;99.90
21090;DHT22;10703;51.020;6.128;2023-05-10T02:07:20;12.80;99.90
21090;DHT22;10703;51.020;6.128;2023-05-10T02:09:47;12.80;99.90
21090;DHT22;10703;51.020;6.128;2023-05-10T02:12:15;12.80;99.90
21090;DHT22;10703;51.020;6.128;2023-05-10T02:14:42;12.80;99.90
21090;DHT22;10703;51.020;6.128;2023-05-10T02:17:11;12.80;99.90
21090;DHT22;10703;51.020;6.128;2023-05-10T02:19:39;12.80;99.90
21090;DHT22;10703;51.020;6.128;2023-05-10T02:22:08;12.90;99.90
21090;DHT22;10703;51.020;6.128;2023-05-10T02:24:36;12.90;99.90
21090;DHT22;10703;51.020;6.128;2023-05-10T02:27:04;12.90;99.90
21090;DHT22;10703;51.020;6.128;2023-05-10T02:29:32;12.90;99.90
21090;DHT22;10703;51.020;6.128;2023-05-10T02:32:00;13.00;99.90
21090;DHT22;10703;51.020;6.128;2023-05-10T02:34:27;13.00;99.90
21090;DHT22;10703;51.020;6.128;2023-05-10T02:36:55;13.00;99.90
21090;DHT22;10703;51.020;6.128;2023-05-10T02:39:23;13.00;99.90
21090;DHT22;10703;51.020;6.128;2023-05-10T02:41:52;13.00;99.90
21090;DHT22;10703;51.020;6.128;2023-05-10T02:44:19;13.00;99.90
21090;DHT22;10703;51.020;6.128;2023-05-10T02:46:47;12.90;99.90
21090;DHT22;10703;51.020;6.128;2023-05-10T02:49:14;13.00;99.90
21090;DHT22;10703;51.020;6.128;2023-05-10T02:51:45;13.00;99.90
21090;DHT22;10703;51.020;6.128;2023-05-10T02:54:24;13.00;99.90
21090;DHT22;10703;51.020;6.128;2023-05-10T02:57:04;13.00;99.90
21090;DHT22;10703;51.020;6.128;2023-05-10T02:59:32;13.00;99.90
21090;DHT22;10703;51.020;6.128;2023-05-10T03:01:59;13.00;99.90
21090;DHT22;10703;51.020;6.128;2023-05-10T03:04:27;13.00;99.90
21090;DHT22;10703;51.020;6.128;2023-05-10T03:06:53;12.90;99.90
21090;DHT22;10703;51.020;6.128;2023-05-10T03:09:20;12.90;99.90
21090;DHT22;10703;51.020;6.128;2023-05-10T03:20:38;12.80;99.90
21090;DHT22;10703;51.020;6.128;2023-05-10T03:25:48;12.80;99.90
21090;DHT22;10703;51.020;6.128;2023-05-10T03:28:16;12.80;99.90
21090;DHT22;10703;51.020;6.128;2023-05-10T03:30:44;12.80;99.90
21090;DHT22;10703;51.020;6.128;2023-05-10T03:33:11;12.80;99.90
21090;DHT22;10703;51.020;6.128;2023-05-10T03:35:39;12.80;99.90
21090;DHT22;10703;51.020;6.128;2023-05-10T03:38:06;12.80;99.90
21090;DHT22;10703;51.020;6.128;2023-05-10T03:40:32;12.70;99.90
21090;DHT22;10703;51.020;6.128;2023-05-10T03:42:59;12.70;99.90
21090;DHT22;10703;51.020;6.128;2023-05-10T03:45:26;12.80;99.90
21090;DHT22;10703;51.020;6.128;2023-05-10T03:47:53;12.70;99.90
21090;DHT22;10703;51.020;6.128;2023-05-10T03:50:20;12.70;99.90
21090;DHT22;10703;51.020;6.128;2023-05-10T03:52:47;12.70;99.90
21090;DHT22;10703;51.020;6.128;2023-05-10T03:55:14;12.70;99.90
21090;DHT22;10703;51.020;6.128;2023-05-10T03:57:40;12.70;99.90
21090;DHT22;10703;51.020;6.128;2023-05-10T04:00:07;12.70;99.90
21090;DHT22;10703;51.020;6.128;2023-05-10T04:02:34;12.80;99.90
21090;DHT22;10703;51.020;6.128;2023-05-10T04:05:01;12.70;99.90
21090;DHT22;10703;51.020;6.128;2023-05-10T04:07:28;12.70;99.90
21090;DHT22;10703;51.020;6.128;2023-05-10T04:09:55;12.70;99.90
21090;DHT22;10703;51.020;6.128;2023-05-10T04:12:22;12.70;99.90
21090;DHT22;10703;51.020;6.128;2023-05-10T04:14:48;12.70;99.90
21090;DHT22;10703;51.020;6.128;2023-05-10T04:17:15;12.70;99.90
21090;DHT22;10703;51.020;6.128;2023-05-10T04:19:42;12.70;99.90
21090;DHT22;10703;51.020;6.128;2023-05-10T04:22:08;12.70;99.90
21090;DHT22;10703;51.020;6.128;2023-05-10T04:24:35;12.70;99.90
21090;DHT22;10703;51.020;6.128;2023-05-10T04:27:01;12.70;99.90
21090;DHT22;10703;51.020;6.128;2023-05-10T04:29:28;12.70;99.90
21090;DHT22;10703;51.020;6.128;2023-05-10T04:31:54;12.70;99.90
21090;DHT22;10703;51.020;6.128;2023-05-10T04:34:21;12.60;99.90
21090;DHT22;10703;51.020;6.128;2023-05-10T04:36:48;12.70;99.90
21090;DHT22;10703;51.020;6.128;2023-05-10T04:39:14;12.70;99.90
21090;DHT22;10703;51.020;6.128;2023-05-10T04:41:41;12.60;99.90
21090;DHT22;10703;51.020;6.128;2023-05-10T04:44:07;12.60;99.90
21090;DHT22;10703;51.020;6.128;2023-05-10T04:46:34;12.70;99.90
21090;DHT22;10703;51.020;6.128;2023-05-10T04:49:01;12.70;99.90
21090;DHT22;10703;51.020;6.128;2023-05-10T04:51:27;12.70;99.90
21090;DHT22;10703;51.020;6.128;2023-05-10T04:53:54;12.70;99.90
21090;DHT22;10703;51.020;6.128;2023-05-10T04:56:32;12.70;99.90
21090;DHT22;10703;51.020;6.128;2023-05-10T04:58:58;12.80;99.90
21090;DHT22;10703;51.020;6.128;2023-05-10T05:01:25;12.70;99.90
21090;DHT22;10703;51.020;6.128;2023-05-10T05:03:52;12.70;99.90
21090;DHT22;10703;51.020;6.128;2023-05-10T05:06:19;12.70;99.90
21090;DHT22;10703;51.020;6.128;2023-05-10T05:08:47;12.70;99.90
21090;DHT22;10703;51.020;6.128;2023-05-10T05:11:15;12.70;99.90
21090;DHT22;10703;51.020;6.128;2023-05-10T05:13:42;12.70;99.90
21090;DHT22;10703;51.020;6.128;2023-05-10T05:16:08;12.60;99.90
21090;DHT22;10703;51.020;6.128;2023-05-10T05:18:35;12.60;99.90
21090;DHT22;10703;51.020;6.128;2023-05-10T05:21:02;12.60;99.90
21090;DHT22;10703;51.020;6.128;2023-05-10T05:23:29;12.60;99.90
21090;DHT22;10703;51.020;6.128;2023-05-10T05:25:56;12.60;99.90
21090;DHT22;10703;51.020;6.128;2023-05-10T05:28:22;12.60;99.90
21090;DHT22;10703;51.020;6.128;2023-05-10T05:30:49;12.70;99.90
21090;DHT22;10703;51.020;6.128;2023-05-10T05:33:16;12.70;99.90
21090;DHT22;10703;51.020;6.128;2023-05-10T05:35:42;12.70;99.90
21090;DHT22;10703;51.020;6.128;2023-05-10T05:38:13;12.70;99.90
21090;DHT22;10703;51.020;6.128;2023-05-10T05:40:40;12.70;99.90
21090;DHT22;10703;51.020;6.128;2023-05-10T05:43:07;12.80;99.90
21090;DHT22;10703;51.020;6.128;2023-05-10T05:45:33;12.70;99.90
21090;DHT22;10703;51.020;6.128;2023-05-10T05:48:00;12.70;99.90
21090;DHT22;10703;51.020;6.128;2023-05-10T05:50:27;12.70;99.90
21090;DHT22;10703;51.020;6.128;2023-05-10T05:52:54;12.80;99.90
21090;DHT22;10703;51.020;6.128;2023-05-10T05:55:21;12.80;99.90
21090;DHT22;10703;51.020;6.128;2023-05-10T05:57:47;12.80;99.90
21090;DHT22;10703;51.020;6.128;2023-05-10T06:00:14;12.80;99.90
21090;DHT22;10703;51.020;6.128;2023-05-10T06:02:41;12.80;99.90
21090;DHT22;10703;51.020;6.128;2023-05-10T06:05:08;12.80;99.90
21090;DHT22;10703;51.020;6.128;2023-05-10T06:07:35;12.80;99.90
21090;DHT22;10703;51.020;6.128;2023-05-10T06:10:02;12.70;99.90
21090;DHT22;10703;51.020;6.128;2023-05-10T06:12:29;12.70;99.90
21090;DHT22;10703;51.020;6.128;2023-05-10T06:14:55;12.70;99.90
21090;DHT22;10703;51.020;6.128;2023-05-10T06:17:22;12.70;99.90
21090;DHT22;10703;51.020;6.128;2023-05-10T06:19:48;12.80;99.90
21090;DHT22;10703;51.020;6.128;2023-05-10T06:22:15;12.80;99.90
21090;DHT22;10703;51.020;6.128;2023-05-10T06:24:42;12.70;99.90
21090;DHT22;10703;51.020;6.128;2023-05-10T06:27:09;12.80;99.90
21090;DHT22;10703;51.020;6.128;2023-05-10T06:29:36;12.70;99.90
21090;DHT22;10703;51.020;6.128;2023-05-10T06:32:03;12.70;99.90
21090;DHT22;10703;51.020;6.128;2023-05-10T06:34:29;12.70;99.90
21090;DHT22;10703;51.020;6.128;2023-05-10T06:36:56;12.70;99.90
21090;DHT22;10703;51.020;6.128;2023-05-10T06:39:23;12.70;99.90
21090;DHT22;10703;51.020;6.128;2023-05-10T06:41:49;12.70;99.90
21090;DHT22;10703;51.020;6.128;2023-05-10T06:44:16;12.80;99.90
21090;DHT22;10703;51.020;6.128;2023-05-10T06:46:42;12.80;99.90
21090;DHT22;10703;51.020;6.128;2023-05-10T06:49:09;12.80;99.90
21090;DHT22;10703;51.020;6.128;2023-05-10T06:51:36;12.80;99.90
21090;DHT22;10703;51.020;6.128;2023-05-10T06:54:02;12.90;99.90
21090;DHT22;10703;51.020;6.128;2023-05-10T06:56:29;13.00;99.90
21090;DHT22;10703;51.020;6.128;2023-05-10T06:58:56;13.00;99.90
21090;DHT22;10703;51.020;6.128;2023-05-10T07:01:22;13.10;99.90
21090;DHT22;10703;51.020;6.128;2023-05-10T07:03:49;13.20;99.90
21090;DHT22;10703;51.020;6.128;2023-05-10T07:06:16;13.30;99.90
21090;DHT22;10703;51.020;6.128;2023-05-10T07:08:58;13.30;99.90
21090;DHT22;10703;51.020;6.128;2023-05-10T07:11:24;13.20;99.90
21090;DHT22;10703;51.020;6.128;2023-05-10T07:13:51;13.20;99.90
21090;DHT22;10703;51.020;6.128;2023-05-10T07:16:18;13.10;99.90
21090;DHT22;10703;51.020;6.128;2023-05-10T07:18:44;13.10;99.90
21090;DHT22;10703;51.020;6.128;2023-05-10T07:21:11;13.10;99.90
21090;DHT22;10703;51.020;6.128;2023-05-10T07:23:37;13.10;99.90
21090;DHT22;10703;51.020;6.128;2023-05-10T07:26:04;13.10;99.90
21090;DHT22;10703;51.020;6.128;2023-05-10T07:28:30;13.10;99.90
21090;DHT22;10703;51.020;6.128;2023-05-10T07:30:57;13.10;99.90
21090;DHT22;10703;51.020;6.128;2023-05-10T07:33:24;13.20;99.90
21090;DHT22;10703;51.020;6.128;2023-05-10T07:35:50;13.10;99.90
21090;DHT22;10703;51.020;6.128;2023-05-10T07:38:17;13.10;99.90
21090;DHT22;10703;51.020;6.128;2023-05-10T07:40:43;13.20;99.90
21090;DHT22;10703;51.020;6.128;2023-05-10T07:43:10;13.30;99.90
21090;DHT22;10703;51.020;6.128;2023-05-10T07:45:37;13.20;99.90
21090;DHT22;10703;51.020;6.128;2023-05-10T07:48:03;13.30;99.90
21090;DHT22;10703;51.020;6.128;2023-05-10T07:50:30;13.40;99.90
21090;DHT22;10703;51.020;6.128;2023-05-10T07:52:56;13.40;99.90
21090;DHT22;10703;51.020;6.128;2023-05-10T07:55:23;13.50;99.90
21090;DHT22;10703;51.020;6.128;2023-05-10T07:57:50;13.50;99.90
21090;DHT22;10703;51.020;6.128;2023-05-10T08:00:17;13.40;99.90
21090;DHT22;10703;51.020;6.128;2023-05-10T08:02:45;13.40;99.90
21090;DHT22;10703;51.020;6.128;2023-05-10T08:05:12;13.40;99.90
21090;DHT22;10703;51.020;6.128;2023-05-10T08:07:38;13.50;99.90
21090;DHT22;10703;51.020;6.128;2023-05-10T08:10:05;13.70;99.90
21090;DHT22;10703;51.020;6.128;2023-05-10T08:12:32;13.90;99.90
21090;DHT22;10703;51.020;6.128;2023-05-10T08:14:59;14.00;99.90
21090;DHT22;10703;51.020;6.128;2023-05-10T08:17:25;14.00;99.90
21090;DHT22;10703;51.020;6.128;2023-05-10T08:19:52;14.20;99.90
21090;DHT22;10703;51.020;6.128;2023-05-10T08:22:19;14.40;99.90
21090;DHT22;10703;51.020;6.128;2023-05-10T08:24:45;14.40;99.90
21090;DHT22;10703;51.020;6.128;2023-05-10T08:27:12;14.50;99.90
21090;DHT22;10703;51.020;6.128;2023-05-10T08:29:38;14.60;99.90
21090;DHT22;10703;51.020;6.128;2023-05-10T08:32:16;14.80;99.90
21090;DHT22;10703;51.020;6.128;2023-05-10T08:34:42;15.00;99.90
21090;DHT22;10703;51.020;6.128;2023-05-10T08:37:09;15.10;99.90
21090;DHT22;10703;51.020;6.128;2023-05-10T08:39:39;15.10;99.90
21090;DHT22;10703;51.020;6.128;2023-05-10T08:42:06;15.10;99.90
21090;DHT22;10703;51.020;6.128;2023-05-10T08:44:35;15.30;99.90
21090;DHT22;10703;51.020;6.128;2023-05-10T08:47:05;15.20;99.90
21090;DHT22;10703;51.020;6.128;2023-05-10T08:49:33;15.10;99.90
21090;DHT22;10703;51.020;6.128;2023-05-10T08:52:03;15.00;99.90
21090;DHT22;10703;51.020;6.128;2023-05-10T08:54:31;15.30;99.90
21090;DHT22;10703;51.020;6.128;2023-05-10T08:56:58;15.50;99.90
21090;DHT22;10703;51.020;6.128;2023-05-10T08:59:25;15.50;99.90
21090;DHT22;10703;51.020;6.128;2023-05-10T09:01:52;15.40;99.90
21090;DHT22;10703;51.020;6.128;2023-05-10T09:04:20;15.80;99.90
21090;DHT22;10703;51.020;6.128;2023-05-10T09:06:48;15.90;99.90
21090;DHT22;10703;51.020;6.128;2023-05-10T09:09:15;15.50;99.90
21090;DHT22;10703;51.020;6.128;2023-05-10T09:11:42;15.60;99.90
21090;DHT22;10703;51.020;6.128;2023-05-10T09:14:09;15.80;99.90
21090;DHT22;10703;51.020;6.128;2023-05-10T09:16:36;15.50;99.90
21090;DHT22;10703;51.020;6.128;2023-05-10T09:19:03;15.60;99.90
21090;DHT22;10703;51.020;6.128;2023-05-10T09:21:30;15.50;99.90
21090;DHT22;10703;51.020;6.128;2023-05-10T09:24:03;15.50;99.90
21090;DHT22;10703;51.020;6.128;2023-05-10T09:26:32;15.40;99.90
21090;DHT22;10703;51.020;6.128;2023-05-10T09:28:59;15.40;99.90
21090;DHT22;10703;51.020;6.128;2023-05-10T09:31:52;15.40;99.90
21090;DHT22;10703;51.020;6.128;2023-05-10T09:34:32;15.40;99.90
21090;DHT22;10703;51.020;6.128;2023-05-10T09:37:00;15.10;99.90
21090;DHT22;10703;51.020;6.128;2023-05-10T09:39:36;15.20;99.90
21090;DHT22;10703;51.020;6.128;2023-05-10T09:42:07;15.40;99.90
21090;DHT22;10703;51.020;6.128;2023-05-10T09:44:35;15.40;99.90
21090;DHT22;10703;51.020;6.128;2023-05-10T09:47:02;15.10;99.90
21090;DHT22;10703;51.020;6.128;2023-05-10T09:49:29;14.90;99.90
21090;DHT22;10703;51.020;6.128;2023-05-10T09:52:06;14.70;99.90
21090;DHT22;10703;51.020;6.128;2023-05-10T09:54:34;15.00;99.90
21090;DHT22;10703;51.020;6.128;2023-05-10T09:57:01;15.00;99.90
21090;DHT22;10703;51.020;6.128;2023-05-10T09:59:28;15.00;99.90
21090;DHT22;10703;51.020;6.128;2023-05-10T10:01:59;15.40;99.90
21090;DHT22;10703;51.020;6.128;2023-05-10T10:04:26;15.60;99.90
21090;DHT22;10703;51.020;6.128;2023-05-10T10:07:03;15.60;99.90
21090;DHT22;10703;51.020;6.128;2023-05-10T10:09:31;15.50;99.90
21090;DHT22;10703;51.020;6.128;2023-05-10T10:11:58;15.00;99.90
21090;DHT22;10703;51.020;6.128;2023-05-10T10:14:25;15.00;99.90
21090;DHT22;10703;51.020;6.128;2023-05-10T10:16:52;15.10;99.90
21090;DHT22;10703;51.020;6.128;2023-05-10T10:19:34;15.30;99.90
21090;DHT22;10703;51.020;6.128;2023-05-10T10:22:02;15.30;99.90
21090;DHT22;10703;51.020;6.128;2023-05-10T10:24:29;15.20;99.90
21090;DHT22;10703;51.020;6.128;2023-05-10T10:27:03;15.10;99.90
21090;DHT22;10703;51.020;6.128;2023-05-10T10:29:51;15.20;99.90
21090;DHT22;10703;51.020;6.128;2023-05-10T10:32:26;15.60;99.90
21090;DHT22;10703;51.020;6.128;2023-05-10T10:34:54;15.80;99.90
21090;DHT22;10703;51.020;6.128;2023-05-10T10:37:21;15.90;99.90
21090;DHT22;10703;51.020;6.128;2023-05-10T10:39:49;16.50;99.90
21090;DHT22;10703;51.020;6.128;2023-05-10T10:42:44;16.70;99.90
21090;DHT22;10703;51.020;6.128;2023-05-10T10:45:12;16.70;99.90
21090;DHT22;10703;51.020;6.128;2023-05-10T10:47:40;16.70;99.90
21090;DHT22;10703;51.020;6.128;2023-05-10T10:50:07;17.00;99.90
21090;DHT22;10703;51.020;6.128;2023-05-10T10:52:39;17.20;99.90
21090;DHT22;10703;51.020;6.128;2023-05-10T10:55:18;16.40;99.90
21090;DHT22;10703;51.020;6.128;2023-05-10T10:57:48;16.30;99.90
21090;DHT22;10703;51.020;6.128;2023-05-10T11:02:51;17.10;99.90
21090;DHT22;10703;51.020;6.128;2023-05-10T11:07:58;16.80;99.90
21090;DHT22;10703;51.020;6.128;2023-05-10T11:10:25;16.60;99.90
21090;DHT22;10703;51.020;6.128;2023-05-10T11:13:02;16.60;99.90
21090;DHT22;10703;51.020;6.128;2023-05-10T11:15:33;16.60;99.90
21090;DHT22;10703;51.020;6.128;2023-05-10T11:18:19;16.80;99.90
21090;DHT22;10703;51.020;6.128;2023-05-10T11:20:57;16.60;99.90
21090;DHT22;10703;51.020;6.128;2023-05-10T11:23:33;16.70;99.90
21090;DHT22;10703;51.020;6.128;2023-05-10T11:26:14;16.60;99.90
21090;DHT22;10703;51.020;6.128;2023-05-10T11:28:48;16.40;99.90
21090;DHT22;10703;51.020;6.128;2023-05-10T11:31:16;16.40;99.90
21090;DHT22;10703;51.020;6.128;2023-05-10T11:33:51;16.40;99.90
21090;DHT22;10703;51.020;6.128;2023-05-10T11:36:24;16.60;99.90
21090;DHT22;10703;51.020;6.128;2023-05-10T11:38:51;16.50;99.90
21090;DHT22;10703;51.020;6.128;2023-05-10T11:41:20;16.50;99.90
21090;DHT22;10703;51.020;6.128;2023-05-10T11:43:51;16.60;99.90
21090;DHT22;10703;51.020;6.128;2023-05-10T11:46:20;17.00;99.90
21090;DHT22;10703;51.020;6.128;2023-05-10T11:48:49;17.00;99.90
21090;DHT22;10703;51.020;6.128;2023-05-10T11:51:24;16.70;99.90
21090;DHT22;10703;51.020;6.128;2023-05-10T11:53:54;17.10;99.90
21090;DHT22;10703;51.020;6.128;2023-05-10T11:56:21;17.30;99.90
21090;DHT22;10703;51.020;6.128;2023-05-10T11:58:56;17.30;99.90
21090;DHT22;10703;51.020;6.128;2023-05-10T12:01:27;17.30;99.90
21090;DHT22;10703;51.020;6.128;2023-05-10T12:03:56;17.10;99.90
21090;DHT22;10703;51.020;6.128;2023-05-10T12:06:28;17.40;99.90
21090;DHT22;10703;51.020;6.128;2023-05-10T12:08:55;17.90;99.90
21090;DHT22;10703;51.020;6.128;2023-05-10T12:11:25;18.10;99.90
21090;DHT22;10703;51.020;6.128;2023-05-10T12:13:53;18.10;99.90
21090;DHT22;10703;51.020;6.128;2023-05-10T12:16:24;18.70;99.90
21090;DHT22;10703;51.020;6.128;2023-05-10T12:18:53;18.30;99.90
21090;DHT22;10703;51.020;6.128;2023-05-10T12:21:20;18.40;99.90
21090;DHT22;10703;51.020;6.128;2023-05-10T12:23:50;18.30;99.90
21090;DHT22;10703;51.020;6.128;2023-05-10T12:26:17;18.30;99.90
21090;DHT22;10703;51.020;6.128;2023-05-10T12:28:44;18.70;99.90
21090;DHT22;10703;51.020;6.128;2023-05-10T12:31:11;19.40;99.90
21090;DHT22;10703;51.020;6.128;2023-05-10T12:33:42;19.40;99.90
21090;DHT22;10703;51.020;6.128;2023-05-10T12:36:10;19.90;99.90
21090;DHT22;10703;51.020;6.128;2023-05-10T12:38:44;19.30;99.90
21090;DHT22;10703;51.020;6.128;2023-05-10T12:41:16;18.70;99.90
21090;DHT22;10703;51.020;6.128;2023-05-10T12:43:43;18.30;99.90
21090;DHT22;10703;51.020;6.128;2023-05-10T12:46:12;18.30;99.90
21090;DHT22;10703;51.020;6.128;2023-05-10T12:48:42;18.50;99.90
21090;DHT22;10703;51.020;6.128;2023-05-10T12:51:09;18.00;99.90
21090;DHT22;10703;51.020;6.128;2023-05-10T12:53:38;17.80;99.90
21090;DHT22;10703;51.020;6.128;2023-05-10T12:56:07;17.90;99.90
21090;DHT22;10703;51.020;6.128;2023-05-10T12:58:34;17.50;99.90
21090;DHT22;10703;51.020;6.128;2023-05-10T13:01:02;17.50;99.90
21090;DHT22;10703;51.020;6.128;2023-05-10T13:03:29;17.80;99.90
21090;DHT22;10703;51.020;6.128;2023-05-10T13:05:56;18.10;99.90
21090;DHT22;10703;51.020;6.128;2023-05-10T13:08:22;18.00;99.90
21090;DHT22;10703;51.020;6.128;2023-05-10T13:10:49;17.50;99.90
21090;DHT22;10703;51.020;6.128;2023-05-10T13:13:16;17.10;99.90
21090;DHT22;10703;51.020;6.128;2023-05-10T13:15:42;17.30;99.90
21090;DHT22;10703;51.020;6.128;2023-05-10T13:18:09;16.90;99.90
21090;DHT22;10703;51.020;6.128;2023-05-10T13:20:36;17.10;99.90
21090;DHT22;10703;51.020;6.128;2023-05-10T13:23:02;17.30;99.90
21090;DHT22;10703;51.020;6.128;2023-05-10T13:25:29;17.30;99.90
21090;DHT22;10703;51.020;6.128;2023-05-10T13:27:56;17.30;99.90
21090;DHT22;10703;51.020;6.128;2023-05-10T13:30:23;17.10;99.90
21090;DHT22;10703;51.020;6.128;2023-05-10T13:32:50;17.00;99.90
21090;DHT22;10703;51.020;6.128;2023-05-10T13:35:17;17.30;99.90
21090;DHT22;10703;51.020;6.128;2023-05-10T13:37:43;17.40;99.90
21090;DHT22;10703;51.020;6.128;2023-05-10T13:40:10;17.60;99.90
21090;DHT22;10703;51.020;6.128;2023-05-10T13:42:37;17.80;99.90
21090;DHT22;10703;51.020;6.128;2023-05-10T13:45:04;18.00;99.90
21090;DHT22;10703;51.020;6.128;2023-05-10T13:47:31;18.30;99.90
21090;DHT22;10703;51.020;6.128;2023-05-10T13:49:57;17.90;99.90
21090;DHT22;10703;51.020;6.128;2023-05-10T13:52:24;17.70;99.90
21090;DHT22;10703;51.020;6.128;2023-05-10T13:54:51;18.00;99.90
21090;DHT22;10703;51.020;6.128;2023-05-10T13:57:21;18.00;99.90
21090;DHT22;10703;51.020;6.128;2023-05-10T13:59:48;18.10;99.90
21090;DHT22;10703;51.020;6.128;2023-05-10T14:02:14;17.70;99.90
21090;DHT22;10703;51.020;6.128;2023-05-10T14:04:41;17.50;99.90
21090;DHT22;10703;51.020;6.128;2023-05-10T14:07:08;17.40;99.90
21090;DHT22;10703;51.020;6.128;2023-05-10T14:09:34;17.10;99.90
21090;DHT22;10703;51.020;6.128;2023-05-10T14:12:01;17.40;99.90
21090;DHT22;10703;51.020;6.128;2023-05-10T14:14:28;17.50;99.90
21090;DHT22;10703;51.020;6.128;2023-05-10T14:16:55;17.30;99.90
21090;DHT22;10703;51.020;6.128;2023-05-10T14:19:22;17.30;99.90
21090;DHT22;10703;51.020;6.128;2023-05-10T14:21:48;17.10;99.90
21090;DHT22;10703;51.020;6.128;2023-05-10T14:24:15;17.20;99.90
21090;DHT22;10703;51.020;6.128;2023-05-10T14:26:41;17.30;99.90
21090;DHT22;10703;51.020;6.128;2023-05-10T14:29:08;16.90;99.90
21090;DHT22;10703;51.020;6.128;2023-05-10T14:31:37;16.90;99.90
21090;DHT22;10703;51.020;6.128;2023-05-10T14:34:04;17.10;99.90
21090;DHT22;10703;51.020;6.128;2023-05-10T14:36:32;17.00;99.90
21090;DHT22;10703;51.020;6.128;2023-05-10T14:38:58;17.20;99.90
21090;DHT22;10703;51.020;6.128;2023-05-10T14:41:25;17.00;99.90
21090;DHT22;10703;51.020;6.128;2023-05-10T14:43:51;17.10;99.90
21090;DHT22;10703;51.020;6.128;2023-05-10T14:46:18;17.00;99.90
21090;DHT22;10703;51.020;6.128;2023-05-10T14:48:45;16.80;99.90
21090;DHT22;10703;51.020;6.128;2023-05-10T14:51:11;16.90;99.90
21090;DHT22;10703;51.020;6.128;2023-05-10T14:53:38;16.90;99.90
21090;DHT22;10703;51.020;6.128;2023-05-10T14:56:05;17.20;99.90
21090;DHT22;10703;51.020;6.128;2023-05-10T14:58:31;17.30;99.90
21090;DHT22;10703;51.020;6.128;2023-05-10T15:01:00;17.30;99.90
21090;DHT22;10703;51.020;6.128;2023-05-10T15:03:27;17.30;99.90
21090;DHT22;10703;51.020;6.128;2023-05-10T15:05:54;17.30;99.90
21090;DHT22;10703;51.020;6.128;2023-05-10T15:08:22;17.10;99.90
21090;DHT22;10703;51.020;6.128;2023-05-10T15:10:51;17.10;99.90
21090;DHT22;10703;51.020;6.128;2023-05-10T15:13:18;17.30;99.90
21090;DHT22;10703;51.020;6.128;2023-05-10T15:15:44;17.10;99.90
21090;DHT22;10703;51.020;6.128;2023-05-10T15:18:11;17.30;99.90
21090;DHT22;10703;51.020;6.128;2023-05-10T15:20:38;16.90;99.90
21090;DHT22;10703;51.020;6.128;2023-05-10T15:23:04;17.00;99.90
21090;DHT22;10703;51.020;6.128;2023-05-10T15:25:31;17.30;99.90
21090;DHT22;10703;51.020;6.128;2023-05-10T15:28:01;17.20;99.90
21090;DHT22;10703;51.020;6.128;2023-05-10T15:30:28;17.20;99.90
21090;DHT22;10703;51.020;6.128;2023-05-10T15:32:55;17.10;99.90
21090;DHT22;10703;51.020;6.128;2023-05-10T15:35:22;17.30;99.90
21090;DHT22;10703;51.020;6.128;2023-05-10T15:37:48;17.10;99.90
21090;DHT22;10703;51.020;6.128;2023-05-10T15:40:16;17.10;99.90
21090;DHT22;10703;51.020;6.128;2023-05-10T15:42:43;17.20;99.90
21090;DHT22;10703;51.020;6.128;2023-05-10T15:45:10;17.00;99.90
21090;DHT22;10703;51.020;6.128;2023-05-10T15:47:37;16.80;99.90
21090;DHT22;10703;51.020;6.128;2023-05-10T15:50:06;17.00;99.90
21090;DHT22;10703;51.020;6.128;2023-05-10T15:52:33;17.10;99.90
21090;DHT22;10703;51.020;6.128;2023-05-10T15:55:00;17.10;99.90
21090;DHT22;10703;51.020;6.128;2023-05-10T15:57:26;17.10;99.90
21090;DHT22;10703;51.020;6.128;2023-05-10T15:59:53;17.20;99.90
21090;DHT22;10703;51.020;6.128;2023-05-10T16:02:19;17.40;99.90
21090;DHT22;10703;51.020;6.128;2023-05-10T16:04:47;17.70;99.90